sensor_id;sensor_type;location;lat;lon;timestamp;P1;P2;P0
45112;PMS5003;30873;53.908;27.576;2023-02-28T00:01:09;50;45.2;35.2
45112;PMS5003;30873;53.908;27.576;2023-02-28T00:07:01;51.9;46.8;36.8
45112;PMS5003;30873;53.908;27.576;2023-02-28T00:11:10;60.6;52.7;40.9
45112;PMS5003;30873;53.908;27.576;2023-02-28T00:16:51;56.2;50.3;39
45112;PMS5003;30873;53.908;27.576;2023-02-28T00:21:29;52.7;47.2;36.8
45112;PMS5003;30873;53.908;27.576;2023-02-28T00:26:37;54.9;48.7;38.1
45112;PMS5003;30873;53.908;27.576;2023-02-28T00:31:59;50.5;45.7;35.4
45112;PMS5003;30873;53.908;27.576;2023-02-28T00:36:23;46.1;43.3;33.4
45112;PMS5003;30873;53.908;27.576;2023-02-28T00:41:37;47.4;44.1;34.3
45112;PMS5003;30873;53.908;27.576;2023-02-28T00:46:49;59.5;51.6;40.3
45112;PMS5003;30873;53.908;27.576;2023-02-28T00:52:01;54.8;48.8;37.7
45112;PMS5003;30873;53.908;27.576;2023-02-28T00:56:31;53.9;48.3;37.9
45112;PMS5003;30873;53.908;27.576;2023-02-28T01:01:59;59.9;52.4;40.4
45112;PMS5003;30873;53.908;27.576;2023-02-28T01:06:23;54.7;49.8;38
45112;PMS5003;30873;53.908;27.576;2023-02-28T01:11:23;64.6;54.7;42.2
45112;PMS5003;30873;53.908;27.576;2023-02-28T01:16:59;60.3;52.3;40
45112;PMS5003;30873;53.908;27.576;2023-02-28T01:21:31;67.8;58.4;45
45112;PMS5003;30873;53.908;27.576;2023-02-28T01:26:59;102.9;90.4;82.8
45112;PMS5003;30873;53.908;27.576;2023-02-28T01:31:41;107.8;97.6;89.3
45112;PMS5003;30873;53.908;27.576;2023-02-28T01:36:22;91.5;81;69.7
45112;PMS5003;30873;53.908;27.576;2023-02-28T01:41:57;60.8;53.2;41.2
45112;PMS5003;30873;53.908;27.576;2023-02-28T01:46:47;20.8;17.7;10.1
45112;PMS5003;30873;53.908;27.576;2023-02-28T01:52:01;22.5;17.9;10
45112;PMS5003;30873;53.908;27.576;2023-02-28T01:56:44;20.3;16.3;8.8
45112;PMS5003;30873;53.908;27.576;2023-02-28T02:01:21;20.1;16.4;9.2
45112;PMS5003;30873;53.908;27.576;2023-02-28T02:07:01;19.9;16.6;9.9
45112;PMS5003;30873;53.908;27.576;2023-02-28T02:11:16;20.3;15.9;8.5
45112;PMS5003;30873;53.908;27.576;2023-02-28T02:17:04;20.9;17.2;9.6
45112;PMS5003;30873;53.908;27.576;2023-02-28T02:26:18;19.7;15.5;8.3
45112;PMS5003;30873;53.908;27.576;2023-02-28T02:32:09;18.7;15.3;8.3
45112;PMS5003;30873;53.908;27.576;2023-02-28T02:36:48;19.1;15.2;8.7
45112;PMS5003;30873;53.908;27.576;2023-02-28T02:42:00;20.9;14.9;8.7
45112;PMS5003;30873;53.908;27.576;2023-02-28T02:46:45;21.7;15.8;9
45112;PMS5003;30873;53.908;27.576;2023-02-28T02:51:51;25.6;20.4;13.2
45112;PMS5003;30873;53.908;27.576;2023-02-28T02:57:00;21.5;19.3;12.3
45112;PMS5003;30873;53.908;27.576;2023-02-28T03:01:29;25.6;21.1;13.5
45112;PMS5003;30873;53.908;27.576;2023-02-28T03:06:37;28.6;24.6;17.3
45112;PMS5003;30873;53.908;27.576;2023-02-28T03:11:43;25.7;21.9;14.3
45112;PMS5003;30873;53.908;27.576;2023-02-28T03:16:25;39.8;33;25.3
45112;PMS5003;30873;53.908;27.576;2023-02-28T03:22:06;31.9;27;17.9
45112;PMS5003;30873;53.908;27.576;2023-02-28T03:26:31;37.2;31.6;21.6
45112;PMS5003;30873;53.908;27.576;2023-02-28T03:32:00;37.8;33.6;23.7
45112;PMS5003;30873;53.908;27.576;2023-02-28T03:36:42;32.6;28.3;20
45112;PMS5003;30873;53.908;27.576;2023-02-28T03:41:24;35.3;32.1;23.6
45112;PMS5003;30873;53.908;27.576;2023-02-28T03:47:00;31;26.4;16.7
45112;PMS5003;30873;53.908;27.576;2023-02-28T03:51:29;34.9;28.8;19.3
45112;PMS5003;30873;53.908;27.576;2023-02-28T03:56:59;38.7;33.5;24.5
45112;PMS5003;30873;53.908;27.576;2023-02-28T04:01:44;34.6;29.4;19.7
45112;PMS5003;30873;53.908;27.576;2023-02-28T04:06:37;52.1;45.6;35.5
45112;PMS5003;30873;53.908;27.576;2023-02-28T04:12:01;53.6;42.7;32.1
45112;PMS5003;30873;53.908;27.576;2023-02-28T04:16:09;40.3;34.6;23.8
45112;PMS5003;30873;53.908;27.576;2023-02-28T04:22:01;27.2;24.5;14.4
45112;PMS5003;30873;53.908;27.576;2023-02-28T04:26:29;40.8;33.9;24.9
45112;PMS5003;30873;53.908;27.576;2023-02-28T04:31:23;47.4;40.8;29
45112;PMS5003;30873;53.908;27.576;2023-02-28T04:36:59;53.7;45.5;33.2
45112;PMS5003;30873;53.908;27.576;2023-02-28T04:41:31;60.4;51.3;38.7
45112;PMS5003;30873;53.908;27.576;2023-02-28T04:46:59;41.1;36.4;26
45112;PMS5003;30873;53.908;27.576;2023-02-28T04:51:35;48.1;39.8;26.5
45112;PMS5003;30873;53.908;27.576;2023-02-28T04:56:19;45.2;38.4;26.2
45112;PMS5003;30873;53.908;27.576;2023-02-28T05:01:57;38.5;33.5;21.1
45112;PMS5003;30873;53.908;27.576;2023-02-28T05:06:30;48.7;41.3;28.2
45112;PMS5003;30873;53.908;27.576;2023-02-28T05:11:59;49.7;41.6;28.7
45112;PMS5003;30873;53.908;27.576;2023-02-28T05:16:43;53.9;45.1;28.9
45112;PMS5003;30873;53.908;27.576;2023-02-28T05:21:49;51.8;43.7;29.3
45112;PMS5003;30873;53.908;27.576;2023-02-28T05:26:43;49.5;40.1;26.9
45112;PMS5003;30873;53.908;27.576;2023-02-28T05:31:29;42.3;35.3;22
45112;PMS5003;30873;53.908;27.576;2023-02-28T05:36:59;45.4;37.5;23.1
45112;PMS5003;30873;53.908;27.576;2023-02-28T05:41:42;35.7;31.2;17.6
45112;PMS5003;30873;53.908;27.576;2023-02-28T05:46:10;31;24.1;13.6
45112;PMS5003;30873;53.908;27.576;2023-02-28T05:51:29;29;24.7;15
45112;PMS5003;30873;53.908;27.576;2023-02-28T05:56:45;25.9;20.9;13
45112;PMS5003;30873;53.908;27.576;2023-02-28T06:01:57;27;22.3;13
45112;PMS5003;30873;53.908;27.576;2023-02-28T06:06:41;23.3;19.4;11.8
45112;PMS5003;30873;53.908;27.576;2023-02-28T06:11:19;22.5;18.9;11.7
45112;PMS5003;30873;53.908;27.576;2023-02-28T06:16:41;24.4;20.4;12.6
45112;PMS5003;30873;53.908;27.576;2023-02-28T06:21:45;29.3;24.6;15
45112;PMS5003;30873;53.908;27.576;2023-02-28T06:26:59;28.4;22.9;14.4
45112;PMS5003;30873;53.908;27.576;2023-02-28T06:31:41;28.6;24.4;15.2
45112;PMS5003;30873;53.908;27.576;2023-02-28T06:36:33;30.5;24.4;14
45112;PMS5003;30873;53.908;27.576;2023-02-28T06:41:43;28.9;25.4;14.2
45112;PMS5003;30873;53.908;27.576;2023-02-28T06:46:17;26.1;22.5;12.3
45112;PMS5003;30873;53.908;27.576;2023-02-28T06:51:45;26.1;21.8;12.3
45112;PMS5003;30873;53.908;27.576;2023-02-28T06:56:41;26.2;21.2;13.3
45112;PMS5003;30873;53.908;27.576;2023-02-28T07:01:09;25.9;21;12.1
45112;PMS5003;30873;53.908;27.576;2023-02-28T07:06:41;25.3;21.5;13.4
45112;PMS5003;30873;53.908;27.576;2023-02-28T07:11:29;26.1;21.4;12.7
45112;PMS5003;30873;53.908;27.576;2023-02-28T07:16:59;29.1;24.1;14.4
45112;PMS5003;30873;53.908;27.576;2023-02-28T07:21:43;28.9;24.3;15.5
45112;PMS5003;30873;53.908;27.576;2023-02-28T07:26:35;39.4;35.2;24.2
45112;PMS5003;30873;53.908;27.576;2023-02-28T07:31:43;53;45.2;36.5
45112;PMS5003;30873;53.908;27.576;2023-02-28T07:36:17;48.4;41.7;30.8
45112;PMS5003;30873;53.908;27.576;2023-02-28T07:41:59;61.7;50.7;42.1
45112;PMS5003;30873;53.908;27.576;2023-02-28T07:46:33;25.4;22.4;15.5
45112;PMS5003;30873;53.908;27.576;2023-02-28T07:51:09;25.5;22.1;14.9
45112;PMS5003;30873;53.908;27.576;2023-02-28T07:56:41;22.3;18.9;11.5
45112;PMS5003;30873;53.908;27.576;2023-02-28T08:01:25;20.1;16.7;9.7
45112;PMS5003;30873;53.908;27.576;2023-02-28T08:06:59;18;14.3;8.5
45112;PMS5003;30873;53.908;27.576;2023-02-28T08:11:41;20.3;15.2;9.1
45112;PMS5003;30873;53.908;27.576;2023-02-28T08:16:19;18.6;15.5;8.5
45112;PMS5003;30873;53.908;27.576;2023-02-28T08:21:41;20;15.8;8.9
45112;PMS5003;30873;53.908;27.576;2023-02-28T08:26:29;20.9;17.5;10.9
45112;PMS5003;30873;53.908;27.576;2023-02-28T08:31:57;23.2;18.8;11.3
45112;PMS5003;30873;53.908;27.576;2023-02-28T08:36:41;25.7;20.3;12.3
45112;PMS5003;30873;53.908;27.576;2023-02-28T08:41:10;25.8;21.2;12.7
45112;PMS5003;30873;53.908;27.576;2023-02-28T08:46:27;22.7;18.3;11.1
45112;PMS5003;30873;53.908;27.576;2023-02-28T08:51:10;20;16.2;9.8
45112;PMS5003;30873;53.908;27.576;2023-02-28T08:56:57;15.8;13.9;8.2
45112;PMS5003;30873;53.908;27.576;2023-02-28T09:01:18;15.3;12.9;7.7
45112;PMS5003;30873;53.908;27.576;2023-02-28T09:06:09;16.7;13.6;7.4
45112;PMS5003;30873;53.908;27.576;2023-02-28T09:11:41;11.7;10.7;5.7
45112;PMS5003;30873;53.908;27.576;2023-02-28T09:16:19;15.1;11.3;6.8
45112;PMS5003;30873;53.908;27.576;2023-02-28T09:21:57;12.4;10;6
45112;PMS5003;30873;53.908;27.576;2023-02-28T09:26:12;13.9;9.6;5.9
45112;PMS5003;30873;53.908;27.576;2023-02-28T09:31:11;14.5;11;5.7
45112;PMS5003;30873;53.908;27.576;2023-02-28T09:36:41;14.5;11.1;6.6
45112;PMS5003;30873;53.908;27.576;2023-02-28T09:41:12;12.6;11;6.8
45112;PMS5003;30873;53.908;27.576;2023-02-28T09:46:58;7.8;7.3;3.6
45112;PMS5003;30873;53.908;27.576;2023-02-28T09:51:30;11.5;9.2;5.5
45112;PMS5003;30873;53.908;27.576;2023-02-28T09:56:10;12.6;9.6;4.9
45112;PMS5003;30873;53.908;27.576;2023-02-28T10:01:42;12.1;9.8;5.2
45112;PMS5003;30873;53.908;27.576;2023-02-28T10:06:29;30.7;27.3;22.1
45112;PMS5003;30873;53.908;27.576;2023-02-28T10:12:00;10.8;9.8;5.9
45112;PMS5003;30873;53.908;27.576;2023-02-28T10:16:10;10.7;9.4;5.6
45112;PMS5003;30873;53.908;27.576;2023-02-28T10:21:20;12.3;10.1;5.8
45112;PMS5003;30873;53.908;27.576;2023-02-28T10:26:39;10.2;8.7;5.7
45112;PMS5003;30873;53.908;27.576;2023-02-28T10:31:29;11.8;9.2;5.2
45112;PMS5003;30873;53.908;27.576;2023-02-28T10:36:57;8.9;7.8;5.4
45112;PMS5003;30873;53.908;27.576;2023-02-28T10:41:30;10.6;8.6;5.2
45112;PMS5003;30873;53.908;27.576;2023-02-28T10:46:11;10.6;9.1;5.1
45112;PMS5003;30873;53.908;27.576;2023-02-28T10:51:41;9.7;8.3;5.4
45112;PMS5003;30873;53.908;27.576;2023-02-28T10:56:31;10.5;8.3;4.9
45112;PMS5003;30873;53.908;27.576;2023-02-28T11:01:57;10.1;7.7;4.5
45112;PMS5003;30873;53.908;27.576;2023-02-28T11:06:29;9.1;7.5;4.5
45112;PMS5003;30873;53.908;27.576;2023-02-28T11:11:20;8.4;7.1;4.4
45112;PMS5003;30873;53.908;27.576;2023-02-28T11:16:58;9;7.8;4.8
45112;PMS5003;30873;53.908;27.576;2023-02-28T11:21:21;11.6;9.8;4.3
45112;PMS5003;30873;53.908;27.576;2023-02-28T11:26:55;9.2;7.8;4.6
45112;PMS5003;30873;53.908;27.576;2023-02-28T11:31:29;9.1;7.6;4.7
45112;PMS5003;30873;53.908;27.576;2023-02-28T11:36:10;8.5;7.3;4.2
45112;PMS5003;30873;53.908;27.576;2023-02-28T11:41:34;8.2;7.1;3.7
45112;PMS5003;30873;53.908;27.576;2023-02-28T11:46:27;8.4;7.4;4.5
45112;PMS5003;30873;53.908;27.576;2023-02-28T11:51:58;10.1;8.8;4.8
45112;PMS5003;30873;53.908;27.576;2023-02-28T11:56:19;10.9;9.1;5.8
45112;PMS5003;30873;53.908;27.576;2023-02-28T12:01:27;9;8.4;5
45112;PMS5003;30873;53.908;27.576;2023-02-28T12:06:40;11.4;9.1;5.4
45112;PMS5003;30873;53.908;27.576;2023-02-28T12:11:25;9.5;7.8;4.4
45112;PMS5003;30873;53.908;27.576;2023-02-28T12:17:01;10.3;9.1;6.4
45112;PMS5003;30873;53.908;27.576;2023-02-28T12:21:18;11.2;8.6;5.5
45112;PMS5003;30873;53.908;27.576;2023-02-28T12:26:36;9.9;8.6;5.2
45112;PMS5003;30873;53.908;27.576;2023-02-28T12:31:45;15.5;13.7;9.6
45112;PMS5003;30873;53.908;27.576;2023-02-28T12:36:31;11.6;9.8;6
45112;PMS5003;30873;53.908;27.576;2023-02-28T12:42:00;12;10.3;6.3
45112;PMS5003;30873;53.908;27.576;2023-02-28T12:46:18;9.9;8.5;4.9
45112;PMS5003;30873;53.908;27.576;2023-02-28T12:51:09;9.4;7.7;4.4
45112;PMS5003;30873;53.908;27.576;2023-02-28T12:56:45;9;8;4.8
45112;PMS5003;30873;53.908;27.576;2023-02-28T13:01:29;10.1;8.9;5.3
45112;PMS5003;30873;53.908;27.576;2023-02-28T13:06:40;10.7;9.2;5.7
45112;PMS5003;30873;53.908;27.576;2023-02-28T13:11:24;9;8.3;4.8
45112;PMS5003;30873;53.908;27.576;2023-02-28T13:16:21;13.4;12.5;9.3
45112;PMS5003;30873;53.908;27.576;2023-02-28T13:21:57;9.2;8.6;5.5
45112;PMS5003;30873;53.908;27.576;2023-02-28T13:26:09;11;9.2;5.8
45112;PMS5003;30873;53.908;27.576;2023-02-28T13:32:18;20.8;19.5;14.1
45112;PMS5003;30873;53.908;27.576;2023-02-28T13:36:31;12.4;10.8;7.5
45112;PMS5003;30873;53.908;27.576;2023-02-28T13:41:55;8.7;7.7;4.4
45112;PMS5003;30873;53.908;27.576;2023-02-28T13:47:31;8.8;7.5;4.3
45112;PMS5003;30873;53.908;27.576;2023-02-28T13:51:39;9.8;8.2;4.7
45112;PMS5003;30873;53.908;27.576;2023-02-28T13:56:47;11;8.5;5.5
45112;PMS5003;30873;53.908;27.576;2023-02-28T14:01:35;10.8;8.6;5.9
45112;PMS5003;30873;53.908;27.576;2023-02-28T14:06:13;10.6;8.6;6.1
45112;PMS5003;30873;53.908;27.576;2023-02-28T14:12:18;8.1;6.9;4.4
45112;PMS5003;30873;53.908;27.576;2023-02-28T14:16:23;11.1;9;6
45112;PMS5003;30873;53.908;27.576;2023-02-28T14:22:02;8.1;7;3.5
45112;PMS5003;30873;53.908;27.576;2023-02-28T14:26:33;8.1;7.3;4.3
45112;PMS5003;30873;53.908;27.576;2023-02-28T14:31:36;9.1;7.1;4.1
45112;PMS5003;30873;53.908;27.576;2023-02-28T14:37:00;9.4;8.1;5.1
45112;PMS5003;30873;53.908;27.576;2023-02-28T14:41:36;8.4;7;4
45112;PMS5003;30873;53.908;27.576;2023-02-28T14:46:48;8.5;6.4;3.8
45112;PMS5003;30873;53.908;27.576;2023-02-28T14:51:29;7.7;6.6;3.7
45112;PMS5003;30873;53.908;27.576;2023-02-28T14:56:48;6.3;5.8;3.3
45112;PMS5003;30873;53.908;27.576;2023-02-28T15:02:14;9;7.9;5.6
45112;PMS5003;30873;53.908;27.576;2023-02-28T15:06:21;6.5;5.6;3.6
45112;PMS5003;30873;53.908;27.576;2023-02-28T15:11:49;9.4;6.7;3.5
45112;PMS5003;30873;53.908;27.576;2023-02-28T15:16:18;10.3;8.8;4.9
45112;PMS5003;30873;53.908;27.576;2023-02-28T15:21:24;8.5;6.3;3.9
45112;PMS5003;30873;53.908;27.576;2023-02-28T15:26:59;9.2;7.8;5.1
45112;PMS5003;30873;53.908;27.576;2023-02-28T15:31:25;7.9;6.2;4.1
45112;PMS5003;30873;53.908;27.576;2023-02-28T15:36:47;8.4;7;4.4
45112;PMS5003;30873;53.908;27.576;2023-02-28T15:41:37;10.1;8.3;5.1
45112;PMS5003;30873;53.908;27.576;2023-02-28T15:46:37;10.8;9.4;5.3
45112;PMS5003;30873;53.908;27.576;2023-02-28T15:51:59;10.4;8.8;5.4
45112;PMS5003;30873;53.908;27.576;2023-02-28T15:56:22;12.4;10.3;5.5
45112;PMS5003;30873;53.908;27.576;2023-02-28T16:02:01;10.2;8.5;5
45112;PMS5003;30873;53.908;27.576;2023-02-28T16:06:20;11.5;8.7;5.2
45112;PMS5003;30873;53.908;27.576;2023-02-28T16:11:21;9.9;8.1;4.7
45112;PMS5003;30873;53.908;27.576;2023-02-28T16:17:02;10;8.8;4.5
45112;PMS5003;30873;53.908;27.576;2023-02-28T16:21:37;8.7;7.4;4
45112;PMS5003;30873;53.908;27.576;2023-02-28T16:26:48;10.2;8.9;4.8
45112;PMS5003;30873;53.908;27.576;2023-02-28T16:31:32;9.1;8.1;5.1
45112;PMS5003;30873;53.908;27.576;2023-02-28T16:36:22;10.3;7.8;4.5
45112;PMS5003;30873;53.908;27.576;2023-02-28T16:41:57;9.2;8.2;4.3
45112;PMS5003;30873;53.908;27.576;2023-02-28T16:46:37;8.9;7.6;4.5
45112;PMS5003;30873;53.908;27.576;2023-02-28T16:51:47;9.9;7.1;4.2
45112;PMS5003;30873;53.908;27.576;2023-02-28T16:56:31;9.8;7.9;4.1
45112;PMS5003;30873;53.908;27.576;2023-02-28T17:01:09;10.5;7.2;4.3
45112;PMS5003;30873;53.908;27.576;2023-02-28T17:06:59;10;8.7;5.1
45112;PMS5003;30873;53.908;27.576;2023-02-28T17:11:09;9.3;8;4.9
45112;PMS5003;30873;53.908;27.576;2023-02-28T17:16:59;8.8;7.7;4.3
45112;PMS5003;30873;53.908;27.576;2023-02-28T17:21:48;10.6;7.9;4.7
45112;PMS5003;30873;53.908;27.576;2023-02-28T17:26:57;8.3;7;4.1
45112;PMS5003;30873;53.908;27.576;2023-02-28T17:31:19;8;6.6;3.4
45112;PMS5003;30873;53.908;27.576;2023-02-28T17:36:33;8;6.3;3.1
45112;PMS5003;30873;53.908;27.576;2023-02-28T17:41:59;6.9;6.1;3.6
45112;PMS5003;30873;53.908;27.576;2023-02-28T17:46:37;7.7;6.2;3.4
45112;PMS5003;30873;53.908;27.576;2023-02-28T17:51:59;6.3;5.7;3.3
45112;PMS5003;30873;53.908;27.576;2023-02-28T17:56:33;5.9;5.3;3.1
45112;PMS5003;30873;53.908;27.576;2023-02-28T18:01:31;7.6;6.2;3.2
45112;PMS5003;30873;53.908;27.576;2023-02-28T18:06:57;7.9;6.3;3.3
45112;PMS5003;30873;53.908;27.576;2023-02-28T18:11:45;5.5;4.4;2.2
45112;PMS5003;30873;53.908;27.576;2023-02-28T18:16:59;7;5.7;3.4
45112;PMS5003;30873;53.908;27.576;2023-02-28T18:21:31;6.9;6.2;3.3
45112;PMS5003;30873;53.908;27.576;2023-02-28T18:26:21;5.3;4.8;2.7
45112;PMS5003;30873;53.908;27.576;2023-02-28T18:31:57;6.9;5.2;2.6
45112;PMS5003;30873;53.908;27.576;2023-02-28T18:36:47;7.2;6.3;3.5
45112;PMS5003;30873;53.908;27.576;2023-02-28T18:41:59;8.2;6.9;3.3
45112;PMS5003;30873;53.908;27.576;2023-02-28T18:46:10;5.8;4.6;2.5
45112;PMS5003;30873;53.908;27.576;2023-02-28T18:51:34;7.3;6;2.8
45112;PMS5003;30873;53.908;27.576;2023-02-28T18:56:57;8.1;5.3;2.3
45112;PMS5003;30873;53.908;27.576;2023-02-28T19:01:45;7;6;3.4
45112;PMS5003;30873;53.908;27.576;2023-02-28T19:06:59;7.2;5.5;2.9
45112;PMS5003;30873;53.908;27.576;2023-02-28T19:11:33;6.6;5.5;3.1
45112;PMS5003;30873;53.908;27.576;2023-02-28T19:16:10;8.1;6.4;3.3
45112;PMS5003;30873;53.908;27.576;2023-02-28T19:21:59;6.3;5.3;2.8
45112;PMS5003;30873;53.908;27.576;2023-02-28T19:26:43;8.2;6.5;3.3
45112;PMS5003;30873;53.908;27.576;2023-02-28T19:31:57;6.7;5.7;3.2
45112;PMS5003;30873;53.908;27.576;2023-02-28T19:36:33;6.3;5.5;3
45112;PMS5003;30873;53.908;27.576;2023-02-28T19:41:10;7.8;5.8;3.7
45112;PMS5003;30873;53.908;27.576;2023-02-28T19:46:59;7.4;6;3.1
45112;PMS5003;30873;53.908;27.576;2023-02-28T19:51:47;6.6;5.1;3.1
45112;PMS5003;30873;53.908;27.576;2023-02-28T19:56:57;8.1;6.2;3.2
45112;PMS5003;30873;53.908;27.576;2023-02-28T20:01:31;8;6.2;3.2
45112;PMS5003;30873;53.908;27.576;2023-02-28T20:06:10;8.4;6.2;3.4
45112;PMS5003;30873;53.908;27.576;2023-02-28T20:11:59;9;7.9;4.9
45112;PMS5003;30873;53.908;27.576;2023-02-28T20:16:12;9.3;7.3;4.4
45112;PMS5003;30873;53.908;27.576;2023-02-28T20:21:57;9.7;7.9;5.1
45112;PMS5003;30873;53.908;27.576;2023-02-28T20:26:10;11.6;9.6;6
45112;PMS5003;30873;53.908;27.576;2023-02-28T20:31:33;6.7;5.9;4.4
45112;PMS5003;30873;53.908;27.576;2023-02-28T20:36:59;12.6;10.6;6.6
45112;PMS5003;30873;53.908;27.576;2023-02-28T20:41:47;11.6;9.7;6.6
45112;PMS5003;30873;53.908;27.576;2023-02-28T20:46:59;12;11.1;7.3
45112;PMS5003;30873;53.908;27.576;2023-02-28T20:51:33;10.7;8.3;5.5
45112;PMS5003;30873;53.908;27.576;2023-02-28T20:56:31;8.3;7.1;4.3
45112;PMS5003;30873;53.908;27.576;2023-02-28T21:01:59;9.2;7.6;4.3
45112;PMS5003;30873;53.908;27.576;2023-02-28T21:06:47;8.6;7.2;4.3
45112;PMS5003;30873;53.908;27.576;2023-02-28T21:11:57;10;8.3;5.2
45112;PMS5003;30873;53.908;27.576;2023-02-28T21:16:20;9.2;8;4.9
45112;PMS5003;30873;53.908;27.576;2023-02-28T21:21:23;9.4;8.2;4.8
45112;PMS5003;30873;53.908;27.576;2023-02-28T21:26:20;10.2;8;4.5
45112;PMS5003;30873;53.908;27.576;2023-02-28T21:31:48;10.4;8.4;4.6
45112;PMS5003;30873;53.908;27.576;2023-02-28T21:36:57;9.1;7.5;4.3
45112;PMS5003;30873;53.908;27.576;2023-02-28T21:41:10;9.9;7.9;4.5
45112;PMS5003;30873;53.908;27.576;2023-02-28T21:46:31;11.3;8.3;4.6
45112;PMS5003;30873;53.908;27.576;2023-02-28T21:51:43;11.1;9;4.8
45112;PMS5003;30873;53.908;27.576;2023-02-28T21:56:47;10.1;7.9;4.2
45112;PMS5003;30873;53.908;27.576;2023-02-28T22:01:57;8.8;7.8;4.3
45112;PMS5003;30873;53.908;27.576;2023-02-28T22:06:20;10;8;4.8
45112;PMS5003;30873;53.908;27.576;2023-02-28T22:11:23;11.8;10.7;5.1
45112;PMS5003;30873;53.908;27.576;2023-02-28T22:16:31;11.9;8.3;4.8
45112;PMS5003;30873;53.908;27.576;2023-02-28T22:21:47;9.3;7.5;4.5
45112;PMS5003;30873;53.908;27.576;2023-02-28T22:26:57;9.5;7.7;4.4
45112;PMS5003;30873;53.908;27.576;2023-02-28T22:31:34;10.7;8.5;4.7
45112;PMS5003;30873;53.908;27.576;2023-02-28T22:36:33;10.9;8.7;5.1
45112;PMS5003;30873;53.908;27.576;2023-02-28T22:41:31;10.8;8.3;4.9
45112;PMS5003;30873;53.908;27.576;2023-02-28T22:46:50;12.6;10.3;5.2
45112;PMS5003;30873;53.908;27.576;2023-02-28T22:51:59;12.2;9.3;5.2
45112;PMS5003;30873;53.908;27.576;2023-02-28T22:56:31;11.5;9.3;5.3
45112;PMS5003;30873;53.908;27.576;2023-02-28T23:01:39;12.9;10.7;5.3
45112;PMS5003;30873;53.908;27.576;2023-02-28T23:06:24;11.3;9.3;5.2
45112;PMS5003;30873;53.908;27.576;2023-02-28T23:11:48;9.8;8.8;5
45112;PMS5003;30873;53.908;27.576;2023-02-28T23:16:57;11.9;9;4.9
45112;PMS5003;30873;53.908;27.576;2023-02-28T23:21:42;12.2;9.8;5.4
45112;PMS5003;30873;53.908;27.576;2023-02-28T23:26:29;12.8;8.9;5
45112;PMS5003;30873;53.908;27.576;2023-02-28T23:31:27;12.1;8.7;4.6
45112;PMS5003;30873;53.908;27.576;2023-02-28T23:36:53;10.3;9.2;5.7
45112;PMS5003;30873;53.908;27.576;2023-02-28T23:41:53;11.7;9.3;5.1
45112;PMS5003;30873;53.908;27.576;2023-02-28T23:46:29;10;8.7;4.8
45112;PMS5003;30873;53.908;27.576;2023-02-28T23:51:23;10.3;8;4.7
45112;PMS5003;30873;53.908;27.576;2023-02-28T23:56:29;11.9;9.2;5.3
